createdAt,value
2023-03-13T00:01:56.538Z,4.43
2023-03-13T00:04:28.272Z,4.60
2023-03-13T00:07:02.275Z,4.50
2023-03-13T00:09:33.961Z,4.13
2023-03-13T00:12:05.870Z,4.60
2023-03-13T00:14:37.572Z,5.18
2023-03-13T00:17:09.381Z,3.78
2023-03-13T00:19:41.160Z,3.80
2023-03-13T00:22:12.869Z,4.75
2023-03-13T00:24:46.316Z,4.28
2023-03-13T00:27:18.323Z,4.80
2023-03-13T00:29:50.876Z,4.07
2023-03-13T00:32:22.602Z,3.70
2023-03-13T00:34:56.185Z,4.18
2023-03-13T00:37:27.909Z,3.35
2023-03-13T00:40:02.641Z,3.85
2023-03-13T00:42:35.005Z,3.70
2023-03-13T00:45:07.094Z,5.57
2023-03-13T00:47:38.816Z,3.60
2023-03-13T00:50:11.008Z,3.22
2023-03-13T00:52:42.691Z,4.20
2023-03-13T00:55:14.428Z,5.22
2023-03-13T00:57:46.167Z,3.90
2023-03-13T01:00:18.382Z,3.60
2023-03-13T01:02:50.232Z,3.95
2023-03-13T01:13:35.145Z,3.35
2023-03-13T01:16:10.195Z,3.33
2023-03-13T01:18:45.071Z,3.47
2023-03-13T01:21:19.920Z,3.13
2023-03-13T01:23:53.638Z,3.25
2023-03-13T01:26:26.357Z,3.92
2023-03-13T01:28:58.764Z,3.25
2023-03-13T01:31:33.675Z,3.40
2023-03-13T01:34:06.508Z,3.90
2023-03-13T01:36:38.243Z,3.67
2023-03-13T01:39:09.981Z,3.45
2023-03-13T01:41:41.698Z,3.78
2023-03-13T01:44:23.591Z,3.63
2023-03-13T01:46:55.835Z,3.33
2023-03-13T01:49:34.182Z,3.67
2023-03-13T01:52:31.280Z,3.63
2023-03-13T01:55:18.574Z,3.70
2023-03-13T02:00:33.121Z,2.92
2023-03-13T02:03:12.259Z,3.13
2023-03-13T02:05:46.924Z,3.00
2023-03-13T02:08:24.209Z,3.78
2023-03-13T02:11:26.644Z,3.53
2023-03-13T02:13:59.349Z,4.05
2023-03-13T02:16:34.225Z,3.28
2023-03-13T02:19:27.872Z,2.95
2023-03-13T02:22:31.590Z,3.97
2023-03-13T02:25:09.285Z,3.38
2023-03-13T02:27:43.269Z,3.17
2023-03-13T02:30:15.695Z,3.78
2023-03-13T02:32:47.493Z,2.70
2023-03-13T02:35:22.118Z,2.92
2023-03-13T02:37:58.011Z,3.60
2023-03-13T02:40:35.434Z,3.60
2023-03-13T02:43:15.247Z,3.20
2023-03-13T02:46:15.771Z,3.67
2023-03-13T02:48:53.227Z,2.88
2023-03-13T02:51:41.799Z,2.90
2023-03-13T02:54:29.854Z,4.55
2023-03-13T02:57:04.160Z,2.78
2023-03-13T02:59:36.076Z,3.35
2023-03-13T03:02:07.837Z,3.15
2023-03-13T03:04:41.923Z,3.15
2023-03-13T03:07:15.760Z,3.20
2023-03-13T03:09:47.467Z,2.80
2023-03-13T03:12:23.518Z,3.28
2023-03-13T03:14:55.241Z,2.83
2023-03-13T03:17:27.712Z,3.00
2023-03-13T03:20:01.213Z,3.13
2023-03-13T03:22:32.884Z,3.10
2023-03-13T03:25:06.862Z,2.58
2023-03-13T03:27:38.918Z,3.22
2023-03-13T03:30:13.089Z,2.75
2023-03-13T03:32:44.880Z,2.65
2023-03-13T03:35:16.756Z,3.40
2023-03-13T03:37:48.624Z,3.08
2023-03-13T03:40:21.440Z,3.40
2023-03-13T03:42:53.289Z,2.90
2023-03-13T03:45:25.086Z,3.20
2023-03-13T03:47:59.772Z,3.85
2023-03-13T03:50:32.096Z,3.25
2023-03-13T03:53:06.172Z,3.30
2023-03-13T03:55:37.893Z,3.10
2023-03-13T03:58:09.673Z,2.97
2023-03-13T04:01:02.404Z,3.17
2023-03-13T04:03:34.315Z,3.10
2023-03-13T04:06:07.580Z,3.38
2023-03-13T04:08:39.374Z,2.90
2023-03-13T04:11:11.387Z,3.03
2023-03-13T04:13:46.438Z,4.00
2023-03-13T04:16:18.283Z,3.25
2023-03-13T04:18:51.659Z,3.10
2023-03-13T04:21:23.919Z,2.88
2023-03-13T04:24:00.045Z,3.05
2023-03-13T04:26:32.249Z,3.33
2023-03-13T04:29:06.294Z,3.35
2023-03-13T04:32:04.435Z,3.30
2023-03-13T04:35:05.552Z,4.45
2023-03-13T04:38:15.528Z,2.80
2023-03-13T04:41:06.751Z,2.63
2023-03-13T04:43:57.160Z,2.97
2023-03-13T04:46:34.596Z,3.17
2023-03-13T04:49:11.170Z,2.70
2023-03-13T04:52:08.725Z,2.80
2023-03-13T04:54:52.123Z,2.33
2023-03-13T04:57:40.820Z,2.72
2023-03-13T05:00:41.140Z,2.80
2023-03-13T05:03:35.781Z,2.67
2023-03-13T05:09:10.820Z,2.88
2023-03-13T05:12:01.284Z,2.65
2023-03-13T05:14:55.704Z,3.00
2023-03-13T05:17:47.635Z,2.53
2023-03-13T05:20:45.662Z,2.42
2023-03-13T05:23:39.139Z,2.45
2023-03-13T05:26:29.296Z,3.33
2023-03-13T05:29:15.088Z,3.17
2023-03-13T05:32:01.345Z,2.60
2023-03-13T05:34:56.073Z,3.05
2023-03-13T05:37:50.244Z,2.67
2023-03-13T05:40:36.881Z,2.60
2023-03-13T05:43:26.608Z,2.83
2023-03-13T05:46:31.107Z,3.03
2023-03-13T05:49:21.212Z,3.03
2023-03-13T05:52:13.156Z,3.58
2023-03-13T05:55:13.923Z,2.92
2023-03-13T05:58:11.738Z,3.95
2023-03-13T06:01:14.252Z,2.28
2023-03-13T06:04:03.502Z,2.78
2023-03-13T06:06:38.427Z,2.40
2023-03-13T06:09:11.798Z,2.78
2023-03-13T06:11:44.410Z,2.10
2023-03-13T06:14:16.498Z,2.33
2023-03-13T06:17:08.142Z,2.38
2023-03-13T06:19:39.899Z,2.92
2023-03-13T06:22:11.579Z,2.70
2023-03-13T06:24:44.752Z,2.60
2023-03-13T06:27:17.076Z,3.55
2023-03-13T06:29:48.868Z,2.40
2023-03-13T06:32:21.901Z,2.42
2023-03-13T06:34:53.632Z,2.58
2023-03-13T06:37:25.332Z,2.53
2023-03-13T06:39:58.284Z,3.40
2023-03-13T06:42:30.415Z,2.47
2023-03-13T06:45:03.476Z,2.15
2023-03-13T06:47:35.152Z,2.00
2023-03-13T06:50:07.414Z,2.10
2023-03-13T06:52:43.939Z,3.05
2023-03-13T06:55:16.108Z,2.75
2023-03-13T06:57:52.133Z,2.38
2023-03-13T07:00:26.805Z,2.47
2023-03-13T07:05:30.309Z,2.38
2023-03-13T07:08:02.042Z,2.20
2023-03-13T07:10:36.639Z,2.50
2023-03-13T07:13:09.755Z,2.80
2023-03-13T07:15:41.541Z,3.45
2023-03-13T07:18:13.187Z,2.42
2023-03-13T07:20:44.917Z,2.17
2023-03-13T07:23:16.629Z,2.72
2023-03-13T07:26:15.315Z,2.45
2023-03-13T07:28:47.031Z,2.03
2023-03-13T07:31:21.467Z,2.47
2023-03-13T07:33:56.561Z,2.10
2023-03-13T07:36:28.668Z,2.25
2023-03-13T07:39:00.371Z,2.17
2023-03-13T07:41:32.101Z,2.40
2023-03-13T07:44:03.781Z,1.98
2023-03-13T07:46:35.577Z,2.40
2023-03-13T07:49:09.345Z,2.75
2023-03-13T07:51:44.217Z,2.92
2023-03-13T07:54:16.093Z,3.28
2023-03-13T07:56:48.883Z,2.40
2023-03-13T07:59:20.542Z,2.05
2023-03-13T08:01:54.452Z,2.47
2023-03-13T08:04:28.539Z,2.55
2023-03-13T08:07:00.234Z,2.33
2023-03-13T08:09:35.541Z,2.40
2023-03-13T08:12:07.948Z,2.40
2023-03-13T08:14:42.213Z,2.50
2023-03-13T08:17:39.667Z,2.90
2023-03-13T08:20:11.726Z,2.78
2023-03-13T08:22:43.417Z,2.20
2023-03-13T08:25:16.292Z,3.17
2023-03-13T08:27:48.033Z,2.42
2023-03-13T08:30:20.072Z,2.40
2023-03-13T08:32:51.817Z,2.58
2023-03-13T08:35:26.428Z,2.38
2023-03-13T08:37:58.167Z,2.47
2023-03-13T08:40:29.867Z,2.50
2023-03-13T08:43:01.594Z,2.50
2023-03-13T08:45:36.374Z,2.00
2023-03-13T08:48:08.272Z,2.00
2023-03-13T08:50:39.967Z,1.95
2023-03-13T08:53:11.659Z,2.22
2023-03-13T08:55:43.451Z,2.65
2023-03-13T08:58:15.151Z,2.85
2023-03-13T09:00:46.808Z,2.38
2023-03-13T09:03:22.014Z,1.90
2023-03-13T09:06:01.344Z,2.55
2023-03-13T09:08:36.327Z,1.98
2023-03-13T09:11:14.401Z,1.80
2023-03-13T09:13:48.984Z,2.10
2023-03-13T09:16:27.394Z,2.28
2023-03-13T09:19:01.463Z,2.08
2023-03-13T09:21:35.729Z,1.60
2023-03-13T09:24:07.888Z,2.20
2023-03-13T09:26:42.689Z,2.28
2023-03-13T09:29:22.383Z,1.73
2023-03-13T09:31:54.112Z,2.25
2023-03-13T09:34:30.425Z,2.10
2023-03-13T09:37:02.161Z,1.95
2023-03-13T09:39:33.936Z,2.20
2023-03-13T09:42:19.101Z,2.15
2023-03-13T09:45:01.694Z,1.98
2023-03-13T09:47:44.398Z,1.83
2023-03-13T09:50:23.921Z,2.40
2023-03-13T09:53:14.063Z,1.73
2023-03-13T09:55:48.857Z,1.95
2023-03-13T09:58:28.215Z,1.83
2023-03-13T10:01:06.629Z,1.92
2023-03-13T10:03:53.618Z,2.00
2023-03-13T10:06:27.856Z,1.90
2023-03-13T10:09:01.277Z,2.47
2023-03-13T10:14:42.916Z,2.28
2023-03-13T10:17:31.554Z,2.45
2023-03-13T10:20:22.089Z,1.90
2023-03-13T10:23:13.945Z,2.33
2023-03-13T10:25:49.630Z,2.28
2023-03-13T10:28:23.103Z,2.33
2023-03-13T10:31:27.994Z,2.10
2023-03-13T10:34:27.584Z,2.50
2023-03-13T10:37:02.007Z,1.55
2023-03-13T10:39:33.760Z,2.00
2023-03-13T10:42:18.997Z,2.20
2023-03-13T10:44:56.629Z,2.15
2023-03-13T10:47:36.365Z,2.85
2023-03-13T10:50:19.078Z,3.88
2023-03-13T10:52:51.726Z,2.00
2023-03-13T10:55:25.153Z,2.65
2023-03-13T10:58:05.252Z,1.92
2023-03-13T11:00:39.235Z,1.80
2023-03-13T11:03:18.517Z,1.52
2023-03-13T11:05:59.142Z,1.80
2023-03-13T11:08:35.812Z,1.33
2023-03-13T11:11:19.356Z,1.42
2023-03-13T11:13:51.120Z,1.10
2023-03-13T11:16:28.582Z,1.60
2023-03-13T11:19:19.766Z,1.30
2023-03-13T11:21:54.710Z,1.30
2023-03-13T11:24:42.539Z,1.08
2023-03-13T11:27:32.464Z,1.48
2023-03-13T11:30:11.787Z,1.25
2023-03-13T11:33:01.970Z,1.00
2023-03-13T11:35:45.534Z,1.00
2023-03-13T11:38:29.266Z,1.45
2023-03-13T11:41:24.270Z,1.30
2023-03-13T11:44:12.645Z,1.17
2023-03-13T11:46:50.010Z,1.13
2023-03-13T11:49:45.639Z,1.20
2023-03-13T11:52:35.736Z,1.75
2023-03-13T11:55:46.137Z,1.02
2023-03-13T11:58:42.200Z,1.60
2023-03-13T12:01:19.085Z,0.90
2023-03-13T12:04:19.898Z,1.00
2023-03-13T12:07:02.413Z,1.10
2023-03-13T12:09:51.692Z,1.10
2023-03-13T12:12:47.837Z,1.30
2023-03-13T12:15:26.815Z,1.13
2023-03-13T12:18:04.445Z,1.10
2023-03-13T12:21:05.617Z,1.13
2023-03-13T12:23:45.876Z,1.15
2023-03-13T12:26:25.148Z,1.02
2023-03-13T12:29:10.811Z,1.13
2023-03-13T12:31:51.922Z,1.00
2023-03-13T12:34:46.783Z,1.40
2023-03-13T12:37:25.082Z,1.10
2023-03-13T12:40:28.549Z,1.00
2023-03-13T12:43:30.935Z,0.93
2023-03-13T12:46:25.862Z,1.10
2023-03-13T12:49:34.508Z,1.30
2023-03-13T12:52:24.737Z,1.00
2023-03-13T12:55:19.151Z,1.30
2023-03-13T12:57:56.694Z,1.00
2023-03-13T13:00:31.488Z,1.10
2023-03-13T13:03:03.179Z,1.15
2023-03-13T13:05:34.919Z,1.60
2023-03-13T13:08:06.689Z,1.40
2023-03-13T13:10:41.954Z,1.10
2023-03-13T13:13:13.558Z,1.20
2023-03-13T13:16:04.514Z,1.30
2023-03-13T13:18:36.382Z,1.00
2023-03-13T13:21:08.005Z,1.10
2023-03-13T13:23:46.612Z,1.40
2023-03-13T13:26:29.605Z,1.52
2023-03-13T13:29:22.291Z,1.60
2023-03-13T13:31:58.854Z,1.08
2023-03-13T13:34:36.375Z,1.30
2023-03-13T13:37:17.794Z,1.27
2023-03-13T13:39:54.710Z,1.33
2023-03-13T13:42:32.523Z,1.48
2023-03-13T13:45:05.853Z,1.20
2023-03-13T13:47:40.972Z,1.20
2023-03-13T13:50:25.405Z,1.17
2023-03-13T13:53:33.290Z,1.60
2023-03-13T13:56:25.066Z,1.10
2023-03-13T13:59:24.835Z,1.10
2023-03-13T14:02:10.470Z,1.40
2023-03-13T14:04:59.585Z,1.08
2023-03-13T14:07:37.081Z,1.25
2023-03-13T14:10:33.614Z,1.73
2023-03-13T14:13:15.082Z,1.30
2023-03-13T14:15:48.983Z,1.13
2023-03-13T14:18:22.629Z,1.60
2023-03-13T14:21:02.441Z,1.08
2023-03-13T14:23:42.098Z,1.48
2023-03-13T14:26:17.963Z,1.85
2023-03-13T14:28:58.241Z,1.30
2023-03-13T14:31:35.260Z,1.40
2023-03-13T14:34:12.958Z,1.38
2023-03-13T14:36:50.558Z,1.35
2023-03-13T14:39:38.516Z,1.10
2023-03-13T14:42:13.605Z,1.27
2023-03-13T14:44:49.228Z,1.52
2023-03-13T14:47:30.865Z,1.50
2023-03-13T14:50:12.019Z,1.58
2023-03-13T14:52:57.494Z,1.30
2023-03-13T14:55:33.136Z,1.40
2023-03-13T14:58:20.949Z,1.70
2023-03-13T15:00:53.310Z,1.20
2023-03-13T15:03:31.044Z,1.20
2023-03-13T15:06:11.879Z,2.00
2023-03-13T15:09:06.188Z,1.13
2023-03-13T15:11:42.742Z,1.00
2023-03-13T15:14:50.791Z,2.13
2023-03-13T15:17:25.266Z,1.38
2023-03-13T15:19:58.887Z,1.60
2023-03-13T15:22:41.960Z,1.65
2023-03-13T15:25:23.074Z,1.63
2023-03-13T15:27:54.749Z,1.70
2023-03-13T15:30:26.367Z,1.30
2023-03-13T15:32:58.201Z,1.15
2023-03-13T15:35:32.378Z,1.55
2023-03-13T15:38:04.203Z,2.10
2023-03-13T15:40:35.964Z,1.42
2023-03-13T15:43:07.727Z,1.23
2023-03-13T15:45:42.166Z,1.20
2023-03-13T15:48:18.202Z,1.15
2023-03-13T15:50:51.922Z,1.33
2023-03-13T15:53:27.764Z,1.35
2023-03-13T15:56:01.821Z,1.33
2023-03-13T15:58:33.503Z,1.38
2023-03-13T16:01:05.462Z,1.42
2023-03-13T16:03:37.183Z,2.92
2023-03-13T16:06:16.812Z,3.35
2023-03-13T16:08:48.673Z,1.92
2023-03-13T16:11:20.479Z,1.70
2023-03-13T16:13:52.972Z,2.50
2023-03-13T16:16:30.541Z,2.20
2023-03-13T16:19:04.315Z,1.55
2023-03-13T16:21:36.228Z,1.30
2023-03-13T16:24:08.113Z,1.58
2023-03-13T16:26:39.835Z,1.50
2023-03-13T16:29:13.449Z,1.77
2023-03-13T16:31:45.232Z,1.40
2023-03-13T16:34:17.736Z,1.73
2023-03-13T16:36:49.390Z,1.40
2023-03-13T16:39:21.134Z,1.70
2023-03-13T16:41:52.889Z,1.63
2023-03-13T16:44:27.089Z,1.77
2023-03-13T16:47:06.033Z,1.60
2023-03-13T16:49:38.260Z,1.73
2023-03-13T16:52:19.164Z,1.65
2023-03-13T16:54:50.878Z,1.48
2023-03-13T16:57:26.345Z,1.70
2023-03-13T16:59:58.068Z,2.00
2023-03-13T17:02:29.820Z,2.22
2023-03-13T17:05:01.589Z,2.20
2023-03-13T17:07:33.372Z,3.38
2023-03-13T17:10:16.683Z,2.13
2023-03-13T17:12:49.031Z,1.88
2023-03-13T17:15:21.809Z,2.33
2023-03-13T17:17:54.002Z,1.90
2023-03-13T17:20:28.460Z,2.15
2023-03-13T17:23:01.114Z,2.33
2023-03-13T17:25:33.278Z,2.20
2023-03-13T17:28:05.127Z,2.33
2023-03-13T17:30:36.842Z,2.03
2023-03-13T17:33:08.515Z,2.17
2023-03-13T17:35:40.284Z,2.30
2023-03-13T17:38:15.535Z,2.22
2023-03-13T17:40:47.204Z,3.13
2023-03-13T17:43:18.896Z,2.65
2023-03-13T17:45:50.568Z,2.60
2023-03-13T17:48:22.325Z,2.85
2023-03-13T17:50:54.195Z,2.85
2023-03-13T17:53:25.859Z,2.70
2023-03-13T17:55:57.620Z,2.97
2023-03-13T17:58:29.283Z,2.50
2023-03-13T18:01:00.990Z,2.90
2023-03-13T18:03:32.655Z,2.88
2023-03-13T18:06:05.030Z,2.90
2023-03-13T18:08:36.740Z,3.10
2023-03-13T18:11:11.607Z,2.63
2023-03-13T18:13:44.871Z,3.20
2023-03-13T18:16:19.798Z,3.13
2023-03-13T18:18:52.505Z,2.95
2023-03-13T18:21:24.671Z,2.78
2023-03-13T18:23:57.081Z,2.70
2023-03-13T18:26:37.009Z,3.10
2023-03-13T18:29:25.992Z,2.50
2023-03-13T18:32:00.501Z,2.50
2023-03-13T18:34:32.670Z,2.60
2023-03-13T18:37:16.096Z,2.67
2023-03-13T18:39:50.011Z,2.90
2023-03-13T18:42:23.145Z,2.70
2023-03-13T18:44:54.883Z,2.67
2023-03-13T18:47:28.604Z,3.08
2023-03-13T18:50:00.290Z,3.47
2023-03-13T18:52:31.977Z,2.75
2023-03-13T18:55:03.844Z,2.88
2023-03-13T18:57:35.855Z,3.00
2023-03-13T19:00:23.328Z,2.78
2023-03-13T19:02:55.728Z,3.10
2023-03-13T19:05:27.654Z,2.70
2023-03-13T19:07:59.430Z,2.65
2023-03-13T19:10:34.208Z,3.05
2023-03-13T19:13:05.902Z,2.92
2023-03-13T19:15:38.053Z,2.65
2023-03-13T19:18:11.794Z,2.80
2023-03-13T19:20:43.630Z,2.67
2023-03-13T19:23:15.259Z,2.90
2023-03-13T19:25:46.978Z,2.72
2023-03-13T19:28:19.827Z,2.90
2023-03-13T19:30:51.785Z,2.85
2023-03-13T19:33:23.472Z,2.83
2023-03-13T19:35:55.280Z,2.67
2023-03-13T19:38:27.096Z,2.70
2023-03-13T19:40:58.934Z,3.25
2023-03-13T19:43:30.620Z,2.97
2023-03-13T19:46:17.555Z,3.00
2023-03-13T19:48:51.912Z,2.80
2023-03-13T19:51:24.910Z,2.90
2023-03-13T19:53:57.030Z,3.00
2023-03-13T19:56:31.753Z,2.80
2023-03-13T20:01:36.700Z,3.17
2023-03-13T20:04:08.530Z,2.95
2023-03-13T20:06:41.338Z,2.60
2023-03-13T20:09:16.307Z,2.65
2023-03-13T20:11:48.018Z,2.60
2023-03-13T20:14:20.005Z,2.80
2023-03-13T20:16:51.838Z,2.40
2023-03-13T20:19:25.523Z,2.10
2023-03-13T20:22:03.421Z,2.63
2023-03-13T20:24:36.241Z,2.58
2023-03-13T20:27:08.008Z,2.20
2023-03-13T20:29:41.353Z,2.50
2023-03-13T20:32:16.877Z,2.70
2023-03-13T20:34:48.608Z,2.42
2023-03-13T20:37:20.871Z,2.88
2023-03-13T20:39:52.601Z,2.47
2023-03-13T20:42:24.258Z,2.70
2023-03-13T20:44:56.006Z,2.85
2023-03-13T20:47:27.683Z,2.63
2023-03-13T20:49:59.488Z,2.78
2023-03-13T20:52:31.147Z,3.00
2023-03-13T20:55:02.927Z,2.58
2023-03-13T20:57:36.718Z,2.40
2023-03-13T21:00:11.655Z,2.27
2023-03-13T21:02:43.515Z,2.45
2023-03-13T21:05:15.991Z,2.28
2023-03-13T21:07:48.037Z,2.40
2023-03-13T21:10:21.057Z,2.25
2023-03-13T21:12:52.851Z,2.28
2023-03-13T21:15:24.588Z,2.70
2023-03-13T21:17:56.542Z,2.05
2023-03-13T21:20:29.284Z,2.22
2023-03-13T21:23:01.007Z,2.40
2023-03-13T21:25:32.726Z,2.53
2023-03-13T21:28:04.641Z,2.92
2023-03-13T21:30:39.219Z,2.25
2023-03-13T21:33:11.961Z,2.40
2023-03-13T21:35:45.882Z,2.38
2023-03-13T21:38:17.745Z,3.42
2023-03-13T21:40:49.472Z,2.75
2023-03-13T21:43:21.171Z,2.80
2023-03-13T21:45:52.882Z,2.75
2023-03-13T21:48:24.842Z,2.60
2023-03-13T21:50:56.534Z,2.60
2023-03-13T21:53:28.225Z,2.38
2023-03-13T21:55:59.990Z,2.00
2023-03-13T21:58:31.710Z,2.70
2023-03-13T22:01:03.593Z,2.83
2023-03-13T22:03:35.319Z,2.53
2023-03-13T22:06:18.650Z,2.60
2023-03-13T22:08:51.072Z,2.58
2023-03-13T22:11:22.799Z,2.60
2023-03-13T22:13:54.632Z,2.90
2023-03-13T22:16:26.762Z,3.08
2023-03-13T22:19:01.200Z,4.00
2023-03-13T22:21:32.952Z,4.30
2023-03-13T22:24:04.836Z,3.65
2023-03-13T22:26:36.648Z,3.60
2023-03-13T22:29:08.393Z,3.80
2023-03-13T22:31:40.145Z,3.15
2023-03-13T22:34:11.871Z,3.22
2023-03-13T22:36:43.636Z,3.00
2023-03-13T22:39:15.324Z,3.35
2023-03-13T22:41:47.292Z,3.55
2023-03-13T22:44:19.432Z,3.65
2023-03-13T22:46:52.683Z,3.35
2023-03-13T22:49:24.690Z,3.47
2023-03-13T22:51:56.566Z,3.53
2023-03-13T22:54:28.270Z,3.83
2023-03-13T22:57:00.018Z,3.20
2023-03-13T22:59:31.834Z,3.00
2023-03-13T23:02:03.566Z,3.15
2023-03-13T23:04:35.285Z,3.97
2023-03-13T23:07:07.051Z,3.70
2023-03-13T23:09:41.643Z,3.80
2023-03-13T23:12:13.347Z,3.92
2023-03-13T23:14:45.032Z,3.63
2023-03-13T23:17:16.857Z,3.90
2023-03-13T23:19:48.531Z,3.65
2023-03-13T23:22:21.998Z,3.70
2023-03-13T23:24:54.142Z,4.00
2023-03-13T23:27:40.874Z,4.00
2023-03-13T23:30:15.240Z,4.05
2023-03-13T23:32:48.457Z,4.05
2023-03-13T23:35:20.464Z,4.50
2023-03-13T23:37:55.209Z,4.70
2023-03-13T23:42:59.958Z,4.43
2023-03-13T23:45:31.681Z,5.30
2023-03-13T23:48:03.525Z,5.25
2023-03-13T23:50:36.253Z,5.13
2023-03-13T23:53:07.989Z,4.95
2023-03-13T23:55:39.631Z,6.57
2023-03-13T23:58:11.360Z,5.50
